sensor_id;sensor_type;location;lat;lon;timestamp;temperature;humidity
79750;SHT31;69233;51.968;5.658;2024-03-02T00:01:39;12.0;53.4
79750;SHT31;69233;51.968;5.658;2024-03-02T00:04:08;12.0;53.7
79750;SHT31;69233;51.968;5.658;2024-03-02T00:06:37;12.0;53.3
79750;SHT31;69233;51.968;5.658;2024-03-02T00:09:11;12.0;53.2
79750;SHT31;69233;51.968;5.658;2024-03-02T00:11:40;12.0;53.5
79750;SHT31;69233;51.968;5.658;2024-03-02T00:14:09;12.0;53.1
79750;SHT31;69233;51.968;5.658;2024-03-02T00:16:38;12.0;53.0
79750;SHT31;69233;51.968;5.658;2024-03-02T00:19:09;12.0;53.3
79750;SHT31;69233;51.968;5.658;2024-03-02T00:21:37;12.0;53.3
79750;SHT31;69233;51.968;5.658;2024-03-02T00:24:20;12.0;53.3
79750;SHT31;69233;51.968;5.658;2024-03-02T00:26:49;12.0;53.4
79750;SHT31;69233;51.968;5.658;2024-03-02T00:29:19;12.0;53.8
79750;SHT31;69233;51.968;5.658;2024-03-02T00:31:48;11.9;53.8
79750;SHT31;69233;51.968;5.658;2024-03-02T00:34:17;11.9;54.2
79750;SHT31;69233;51.968;5.658;2024-03-02T00:36:46;11.9;54.5
79750;SHT31;69233;51.968;5.658;2024-03-02T00:39:16;11.9;54.3
79750;SHT31;69233;51.968;5.658;2024-03-02T00:41:45;11.9;54.6
79750;SHT31;69233;51.968;5.658;2024-03-02T00:44:15;11.9;54.7
79750;SHT31;69233;51.968;5.658;2024-03-02T00:46:44;11.9;55.0
79750;SHT31;69233;51.968;5.658;2024-03-02T00:49:18;11.9;54.7
79750;SHT31;69233;51.968;5.658;2024-03-02T00:51:50;11.9;54.8
79750;SHT31;69233;51.968;5.658;2024-03-02T00:54:22;11.9;54.8
79750;SHT31;69233;51.968;5.658;2024-03-02T00:56:51;11.8;54.7
79750;SHT31;69233;51.968;5.658;2024-03-02T00:59:22;11.8;55.1
79750;SHT31;69233;51.968;5.658;2024-03-02T01:01:52;11.8;56.3
79750;SHT31;69233;51.968;5.658;2024-03-02T01:04:21;11.8;56.8
79750;SHT31;69233;51.968;5.658;2024-03-02T01:06:50;11.8;56.9
79750;SHT31;69233;51.968;5.658;2024-03-02T01:09:19;11.8;57.2
79750;SHT31;69233;51.968;5.658;2024-03-02T01:11:49;11.8;57.7
79750;SHT31;69233;51.968;5.658;2024-03-02T01:14:18;11.8;57.7
79750;SHT31;69233;51.968;5.658;2024-03-02T01:16:49;11.8;58.1
79750;SHT31;69233;51.968;5.658;2024-03-02T01:19:17;11.8;58.1
79750;SHT31;69233;51.968;5.658;2024-03-02T01:21:46;11.8;58.1
79750;SHT31;69233;51.968;5.658;2024-03-02T01:24:17;11.8;58.2
79750;SHT31;69233;51.968;5.658;2024-03-02T01:26:45;11.8;58.4
79750;SHT31;69233;51.968;5.658;2024-03-02T01:29:14;11.8;58.5
79750;SHT31;69233;51.968;5.658;2024-03-02T01:31:42;11.7;58.7
79750;SHT31;69233;51.968;5.658;2024-03-02T01:34:11;11.7;58.6
79750;SHT31;69233;51.968;5.658;2024-03-02T01:36:40;11.7;58.6
79750;SHT31;69233;51.968;5.658;2024-03-02T01:39:09;11.7;58.9
79750;SHT31;69233;51.968;5.658;2024-03-02T01:41:38;11.6;59.2
79750;SHT31;69233;51.968;5.658;2024-03-02T01:44:06;11.6;59.0
79750;SHT31;69233;51.968;5.658;2024-03-02T01:46:35;11.6;59.3
79750;SHT31;69233;51.968;5.658;2024-03-02T01:49:04;11.6;59.5
79750;SHT31;69233;51.968;5.658;2024-03-02T01:51:33;11.6;59.4
79750;SHT31;69233;51.968;5.658;2024-03-02T01:54:01;11.5;59.7
79750;SHT31;69233;51.968;5.658;2024-03-02T01:56:30;11.5;59.8
79750;SHT31;69233;51.968;5.658;2024-03-02T01:58:59;11.5;59.7
79750;SHT31;69233;51.968;5.658;2024-03-02T02:01:28;11.5;59.9
79750;SHT31;69233;51.968;5.658;2024-03-02T02:03:57;11.5;59.7
79750;SHT31;69233;51.968;5.658;2024-03-02T02:06:27;11.5;59.9
79750;SHT31;69233;51.968;5.658;2024-03-02T02:08:56;11.5;59.9
79750;SHT31;69233;51.968;5.658;2024-03-02T02:11:25;11.5;60.0
79750;SHT31;69233;51.968;5.658;2024-03-02T02:13:54;11.5;60.0
79750;SHT31;69233;51.968;5.658;2024-03-02T02:16:23;11.5;60.0
79750;SHT31;69233;51.968;5.658;2024-03-02T02:18:52;11.5;59.8
79750;SHT31;69233;51.968;5.658;2024-03-02T02:21:24;11.5;60.0
79750;SHT31;69233;51.968;5.658;2024-03-02T02:23:54;11.5;59.8
79750;SHT31;69233;51.968;5.658;2024-03-02T02:26:22;11.4;59.9
79750;SHT31;69233;51.968;5.658;2024-03-02T02:28:51;11.4;59.8
79750;SHT31;69233;51.968;5.658;2024-03-02T02:31:20;11.4;59.6
79750;SHT31;69233;51.968;5.658;2024-03-02T02:33:49;11.4;60.0
79750;SHT31;69233;51.968;5.658;2024-03-02T02:36:17;11.4;60.5
79750;SHT31;69233;51.968;5.658;2024-03-02T02:38:49;11.4;61.4
79750;SHT31;69233;51.968;5.658;2024-03-02T02:41:17;11.4;62.0
79750;SHT31;69233;51.968;5.658;2024-03-02T02:43:46;11.4;62.1
79750;SHT31;69233;51.968;5.658;2024-03-02T02:46:15;11.4;62.1
79750;SHT31;69233;51.968;5.658;2024-03-02T02:48:45;11.3;62.2
79750;SHT31;69233;51.968;5.658;2024-03-02T02:51:14;11.3;62.8
79750;SHT31;69233;51.968;5.658;2024-03-02T02:53:43;11.2;62.7
79750;SHT31;69233;51.968;5.658;2024-03-02T02:56:12;11.2;63.4
79750;SHT31;69233;51.968;5.658;2024-03-02T02:58:41;11.1;63.6
79750;SHT31;69233;51.968;5.658;2024-03-02T03:01:10;11.1;63.8
79750;SHT31;69233;51.968;5.658;2024-03-02T03:03:41;11.0;64.5
79750;SHT31;69233;51.968;5.658;2024-03-02T03:06:10;11.0;63.5
79750;SHT31;69233;51.968;5.658;2024-03-02T03:08:39;11.0;63.4
79750;SHT31;69233;51.968;5.658;2024-03-02T03:11:07;10.9;64.1
79750;SHT31;69233;51.968;5.658;2024-03-02T03:13:36;10.9;64.4
79750;SHT31;69233;51.968;5.658;2024-03-02T03:16:05;10.8;64.3
79750;SHT31;69233;51.968;5.658;2024-03-02T03:18:34;10.7;64.2
79750;SHT31;69233;51.968;5.658;2024-03-02T03:21:03;10.7;64.2
79750;SHT31;69233;51.968;5.658;2024-03-02T03:23:31;10.6;64.9
79750;SHT31;69233;51.968;5.658;2024-03-02T03:26:02;10.6;64.8
79750;SHT31;69233;51.968;5.658;2024-03-02T03:28:31;10.5;65.3
79750;SHT31;69233;51.968;5.658;2024-03-02T03:30:59;10.5;64.8
79750;SHT31;69233;51.968;5.658;2024-03-02T03:33:28;10.5;65.0
79750;SHT31;69233;51.968;5.658;2024-03-02T03:35:57;10.5;65.3
79750;SHT31;69233;51.968;5.658;2024-03-02T03:38:26;10.4;65.2
79750;SHT31;69233;51.968;5.658;2024-03-02T03:40:54;10.4;65.4
79750;SHT31;69233;51.968;5.658;2024-03-02T03:43:23;10.4;64.9
79750;SHT31;69233;51.968;5.658;2024-03-02T03:45:52;10.4;64.9
79750;SHT31;69233;51.968;5.658;2024-03-02T03:48:21;10.5;64.6
79750;SHT31;69233;51.968;5.658;2024-03-02T03:50:50;10.5;64.1
79750;SHT31;69233;51.968;5.658;2024-03-02T03:53:18;10.5;64.3
79750;SHT31;69233;51.968;5.658;2024-03-02T03:55:47;10.4;64.4
79750;SHT31;69233;51.968;5.658;2024-03-02T03:58:15;10.4;64.8
79750;SHT31;69233;51.968;5.658;2024-03-02T04:00:47;10.4;64.9
79750;SHT31;69233;51.968;5.658;2024-03-02T04:03:15;10.4;64.6
79750;SHT31;69233;51.968;5.658;2024-03-02T04:05:44;10.4;64.7
79750;SHT31;69233;51.968;5.658;2024-03-02T04:08:13;10.5;64.7
79750;SHT31;69233;51.968;5.658;2024-03-02T04:10:41;10.5;64.8
79750;SHT31;69233;51.968;5.658;2024-03-02T04:13:10;10.5;64.4
79750;SHT31;69233;51.968;5.658;2024-03-02T04:15:39;10.5;63.8
79750;SHT31;69233;51.968;5.658;2024-03-02T04:18:08;10.5;63.5
79750;SHT31;69233;51.968;5.658;2024-03-02T04:20:38;10.5;63.5
79750;SHT31;69233;51.968;5.658;2024-03-02T04:23:06;10.5;63.3
79750;SHT31;69233;51.968;5.658;2024-03-02T04:25:35;10.5;63.5
79750;SHT31;69233;51.968;5.658;2024-03-02T04:28:04;10.5;63.0
79750;SHT31;69233;51.968;5.658;2024-03-02T04:30:32;10.4;62.8
79750;SHT31;69233;51.968;5.658;2024-03-02T04:33:01;10.4;62.8
79750;SHT31;69233;51.968;5.658;2024-03-02T04:35:30;10.4;62.9
79750;SHT31;69233;51.968;5.658;2024-03-02T04:37:59;10.4;62.9
79750;SHT31;69233;51.968;5.658;2024-03-02T04:40:27;10.4;62.6
79750;SHT31;69233;51.968;5.658;2024-03-02T04:42:56;10.4;62.7
79750;SHT31;69233;51.968;5.658;2024-03-02T04:45:25;10.4;62.8
79750;SHT31;69233;51.968;5.658;2024-03-02T04:47:54;10.4;62.6
79750;SHT31;69233;51.968;5.658;2024-03-02T04:50:24;10.4;62.5
79750;SHT31;69233;51.968;5.658;2024-03-02T04:52:53;10.4;62.6
79750;SHT31;69233;51.968;5.658;2024-03-02T04:55:22;10.5;62.6
79750;SHT31;69233;51.968;5.658;2024-03-02T04:58:03;10.5;62.6
79750;SHT31;69233;51.968;5.658;2024-03-02T05:00:33;10.5;62.5
79750;SHT31;69233;51.968;5.658;2024-03-02T05:03:02;10.5;62.5
79750;SHT31;69233;51.968;5.658;2024-03-02T05:05:30;10.5;62.3
79750;SHT31;69233;51.968;5.658;2024-03-02T05:07:59;10.5;62.3
79750;SHT31;69233;51.968;5.658;2024-03-02T05:10:28;10.5;62.4
79750;SHT31;69233;51.968;5.658;2024-03-02T05:12:56;10.5;62.1
79750;SHT31;69233;51.968;5.658;2024-03-02T05:15:26;10.5;62.4
79750;SHT31;69233;51.968;5.658;2024-03-02T05:17:55;10.5;62.6
79750;SHT31;69233;51.968;5.658;2024-03-02T05:20:26;10.5;62.4
79750;SHT31;69233;51.968;5.658;2024-03-02T05:22:54;10.6;62.3
79750;SHT31;69233;51.968;5.658;2024-03-02T05:25:23;10.6;61.7
79750;SHT31;69233;51.968;5.658;2024-03-02T05:27:52;10.6;61.7
79750;SHT31;69233;51.968;5.658;2024-03-02T05:30:21;10.5;62.1
79750;SHT31;69233;51.968;5.658;2024-03-02T05:32:52;10.5;62.3
79750;SHT31;69233;51.968;5.658;2024-03-02T05:35:21;10.5;62.1
79750;SHT31;69233;51.968;5.658;2024-03-02T05:37:49;10.4;62.3
79750;SHT31;69233;51.968;5.658;2024-03-02T05:40:18;10.4;63.0
79750;SHT31;69233;51.968;5.658;2024-03-02T05:42:48;10.4;63.2
79750;SHT31;69233;51.968;5.658;2024-03-02T05:45:16;10.4;63.3
79750;SHT31;69233;51.968;5.658;2024-03-02T05:47:45;10.4;63.3
79750;SHT31;69233;51.968;5.658;2024-03-02T05:50:14;10.4;62.9
79750;SHT31;69233;51.968;5.658;2024-03-02T05:52:45;10.4;62.7
79750;SHT31;69233;51.968;5.658;2024-03-02T05:55:13;10.4;63.1
79750;SHT31;69233;51.968;5.658;2024-03-02T05:57:44;10.4;63.1
79750;SHT31;69233;51.968;5.658;2024-03-02T06:00:24;10.5;62.5
79750;SHT31;69233;51.968;5.658;2024-03-02T06:02:55;10.5;61.9
79750;SHT31;69233;51.968;5.658;2024-03-02T06:05:23;10.5;61.5
79750;SHT31;69233;51.968;5.658;2024-03-02T06:07:55;10.5;61.2
79750;SHT31;69233;51.968;5.658;2024-03-02T06:10:25;10.5;61.6
79750;SHT31;69233;51.968;5.658;2024-03-02T06:12:54;10.4;61.6
79750;SHT31;69233;51.968;5.658;2024-03-02T06:15:22;10.4;61.3
79750;SHT31;69233;51.968;5.658;2024-03-02T06:17:51;10.4;61.1
79750;SHT31;69233;51.968;5.658;2024-03-02T06:20:20;10.4;61.0
79750;SHT31;69233;51.968;5.658;2024-03-02T06:22:49;10.4;61.0
79750;SHT31;69233;51.968;5.658;2024-03-02T06:25:17;10.3;61.4
79750;SHT31;69233;51.968;5.658;2024-03-02T06:27:46;10.3;61.0
79750;SHT31;69233;51.968;5.658;2024-03-02T06:30:15;10.3;61.2
79750;SHT31;69233;51.968;5.658;2024-03-02T06:32:44;10.2;60.9
79750;SHT31;69233;51.968;5.658;2024-03-02T06:35:13;10.2;61.2
79750;SHT31;69233;51.968;5.658;2024-03-02T06:37:42;10.2;61.2
79750;SHT31;69233;51.968;5.658;2024-03-02T06:40:11;10.2;61.5
79750;SHT31;69233;51.968;5.658;2024-03-02T06:42:39;10.1;61.8
79750;SHT31;69233;51.968;5.658;2024-03-02T06:45:09;10.1;61.4
79750;SHT31;69233;51.968;5.658;2024-03-02T06:47:38;10.1;61.5
79750;SHT31;69233;51.968;5.658;2024-03-02T06:50:07;10.1;60.5
79750;SHT31;69233;51.968;5.658;2024-03-02T06:52:36;10.1;61.1
79750;SHT31;69233;51.968;5.658;2024-03-02T06:55:05;10.1;60.9
79750;SHT31;69233;51.968;5.658;2024-03-02T06:57:34;10.1;61.1
79750;SHT31;69233;51.968;5.658;2024-03-02T07:00:03;10.1;61.2
79750;SHT31;69233;51.968;5.658;2024-03-02T07:02:35;10.1;60.9
79750;SHT31;69233;51.968;5.658;2024-03-02T07:05:04;10.0;61.1
79750;SHT31;69233;51.968;5.658;2024-03-02T07:07:34;10.0;60.8
79750;SHT31;69233;51.968;5.658;2024-03-02T07:10:03;10.0;61.5
79750;SHT31;69233;51.968;5.658;2024-03-02T07:12:36;10.0;61.6
79750;SHT31;69233;51.968;5.658;2024-03-02T07:15:05;10.0;61.6
79750;SHT31;69233;51.968;5.658;2024-03-02T07:17:44;10.0;61.8
79750;SHT31;69233;51.968;5.658;2024-03-02T07:20:13;10.0;62.2
79750;SHT31;69233;51.968;5.658;2024-03-02T07:22:42;10.0;63.0
79750;SHT31;69233;51.968;5.658;2024-03-02T07:25:11;10.0;63.0
79750;SHT31;69233;51.968;5.658;2024-03-02T07:27:40;10.0;62.5
79750;SHT31;69233;51.968;5.658;2024-03-02T07:30:13;10.0;62.9
79750;SHT31;69233;51.968;5.658;2024-03-02T07:32:42;10.1;63.2
79750;SHT31;69233;51.968;5.658;2024-03-02T07:35:12;10.1;63.0
79750;SHT31;69233;51.968;5.658;2024-03-02T07:37:43;10.1;62.7
79750;SHT31;69233;51.968;5.658;2024-03-02T07:40:12;10.2;62.2
79750;SHT31;69233;51.968;5.658;2024-03-02T07:42:41;10.3;62.9
79750;SHT31;69233;51.968;5.658;2024-03-02T07:45:10;10.3;63.3
79750;SHT31;69233;51.968;5.658;2024-03-02T07:47:41;10.4;62.8
79750;SHT31;69233;51.968;5.658;2024-03-02T07:50:13;10.5;63.0
79750;SHT31;69233;51.968;5.658;2024-03-02T07:52:42;10.6;62.7
79750;SHT31;69233;51.968;5.658;2024-03-02T07:55:10;10.7;62.5
79750;SHT31;69233;51.968;5.658;2024-03-02T07:57:40;10.8;62.2
79750;SHT31;69233;51.968;5.658;2024-03-02T08:00:10;11.0;61.5
79750;SHT31;69233;51.968;5.658;2024-03-02T08:02:40;11.1;60.4
79750;SHT31;69233;51.968;5.658;2024-03-02T08:05:09;11.3;59.8
79750;SHT31;69233;51.968;5.658;2024-03-02T08:07:38;11.3;58.7
79750;SHT31;69233;51.968;5.658;2024-03-02T08:10:08;11.4;59.1
79750;SHT31;69233;51.968;5.658;2024-03-02T08:12:37;11.4;58.6
79750;SHT31;69233;51.968;5.658;2024-03-02T08:15:06;11.4;57.6
79750;SHT31;69233;51.968;5.658;2024-03-02T08:17:37;11.5;57.6
79750;SHT31;69233;51.968;5.658;2024-03-02T08:20:08;11.5;57.2
79750;SHT31;69233;51.968;5.658;2024-03-02T08:22:37;11.5;57.4
79750;SHT31;69233;51.968;5.658;2024-03-02T08:25:06;11.5;58.0
79750;SHT31;69233;51.968;5.658;2024-03-02T08:27:36;11.5;58.0
79750;SHT31;69233;51.968;5.658;2024-03-02T08:30:06;11.5;58.0
79750;SHT31;69233;51.968;5.658;2024-03-02T08:32:37;11.5;56.8
79750;SHT31;69233;51.968;5.658;2024-03-02T08:35:07;11.5;57.2
79750;SHT31;69233;51.968;5.658;2024-03-02T08:37:37;11.5;57.2
79750;SHT31;69233;51.968;5.658;2024-03-02T08:40:08;11.5;56.2
79750;SHT31;69233;51.968;5.658;2024-03-02T08:42:37;11.4;55.8
79750;SHT31;69233;51.968;5.658;2024-03-02T08:45:07;11.4;56.7
79750;SHT31;69233;51.968;5.658;2024-03-02T08:47:36;11.4;57.1
79750;SHT31;69233;51.968;5.658;2024-03-02T08:50:05;11.4;58.1
79750;SHT31;69233;51.968;5.658;2024-03-02T08:52:36;11.4;57.7
79750;SHT31;69233;51.968;5.658;2024-03-02T08:55:06;11.4;57.7
79750;SHT31;69233;51.968;5.658;2024-03-02T08:57:36;11.4;57.5
79750;SHT31;69233;51.968;5.658;2024-03-02T09:00:06;11.4;57.5
79750;SHT31;69233;51.968;5.658;2024-03-02T09:02:35;11.5;56.0
79750;SHT31;69233;51.968;5.658;2024-03-02T09:05:04;11.5;56.0
79750;SHT31;69233;51.968;5.658;2024-03-02T09:07:33;11.5;56.7
79750;SHT31;69233;51.968;5.658;2024-03-02T09:10:01;11.6;55.8
79750;SHT31;69233;51.968;5.658;2024-03-02T09:12:30;11.7;56.3
79750;SHT31;69233;51.968;5.658;2024-03-02T09:15:00;11.7;56.6
79750;SHT31;69233;51.968;5.658;2024-03-02T09:17:29;11.8;55.3
79750;SHT31;69233;51.968;5.658;2024-03-02T09:19:58;11.9;55.3
79750;SHT31;69233;51.968;5.658;2024-03-02T09:22:27;12.0;56.2
79750;SHT31;69233;51.968;5.658;2024-03-02T09:24:58;12.1;54.5
79750;SHT31;69233;51.968;5.658;2024-03-02T09:27:27;12.2;53.8
79750;SHT31;69233;51.968;5.658;2024-03-02T09:29:55;12.3;55.0
79750;SHT31;69233;51.968;5.658;2024-03-02T09:32:26;12.4;55.1
79750;SHT31;69233;51.968;5.658;2024-03-02T09:34:55;12.6;52.7
79750;SHT31;69233;51.968;5.658;2024-03-02T09:37:24;12.7;54.0
79750;SHT31;69233;51.968;5.658;2024-03-02T09:39:56;12.8;53.7
79750;SHT31;69233;51.968;5.658;2024-03-02T09:42:25;12.9;54.3
79750;SHT31;69233;51.968;5.658;2024-03-02T09:44:55;13.0;52.3
79750;SHT31;69233;51.968;5.658;2024-03-02T09:47:24;13.1;54.0
79750;SHT31;69233;51.968;5.658;2024-03-02T09:49:53;13.2;51.5
79750;SHT31;69233;51.968;5.658;2024-03-02T09:52:24;13.3;52.5
79750;SHT31;69233;51.968;5.658;2024-03-02T09:54:53;13.4;51.3
79750;SHT31;69233;51.968;5.658;2024-03-02T09:57:21;13.5;51.3
79750;SHT31;69233;51.968;5.658;2024-03-02T09:59:50;13.6;51.4
79750;SHT31;69233;51.968;5.658;2024-03-02T10:02:19;13.7;51.9
79750;SHT31;69233;51.968;5.658;2024-03-02T10:04:49;13.8;52.6
79750;SHT31;69233;51.968;5.658;2024-03-02T10:07:18;13.9;52.0
79750;SHT31;69233;51.968;5.658;2024-03-02T10:09:48;14.0;50.6
79750;SHT31;69233;51.968;5.658;2024-03-02T10:12:18;14.2;50.7
79750;SHT31;69233;51.968;5.658;2024-03-02T10:14:48;14.3;49.5
79750;SHT31;69233;51.968;5.658;2024-03-02T10:17:21;14.4;49.0
79750;SHT31;69233;51.968;5.658;2024-03-02T10:19:49;14.5;47.9
79750;SHT31;69233;51.968;5.658;2024-03-02T10:22:18;14.6;48.6
79750;SHT31;69233;51.968;5.658;2024-03-02T10:24:47;14.7;47.7
79750;SHT31;69233;51.968;5.658;2024-03-02T10:27:23;14.7;48.4
79750;SHT31;69233;51.968;5.658;2024-03-02T10:29:51;14.9;47.2
79750;SHT31;69233;51.968;5.658;2024-03-02T10:32:22;14.9;45.6
79750;SHT31;69233;51.968;5.658;2024-03-02T10:34:51;15.0;45.0
79750;SHT31;69233;51.968;5.658;2024-03-02T10:37:23;15.1;45.3
79750;SHT31;69233;51.968;5.658;2024-03-02T10:39:52;15.2;45.9
79750;SHT31;69233;51.968;5.658;2024-03-02T10:42:22;15.3;44.9
79750;SHT31;69233;51.968;5.658;2024-03-02T10:44:52;15.5;44.3
79750;SHT31;69233;51.968;5.658;2024-03-02T10:47:23;15.6;46.5
79750;SHT31;69233;51.968;5.658;2024-03-02T10:49:54;15.7;46.1
79750;SHT31;69233;51.968;5.658;2024-03-02T10:52:25;15.8;43.7
79750;SHT31;69233;51.968;5.658;2024-03-02T10:54:53;15.9;43.9
79750;SHT31;69233;51.968;5.658;2024-03-02T10:57:28;15.9;44.4
79750;SHT31;69233;51.968;5.658;2024-03-02T11:00:03;16.0;44.8
79750;SHT31;69233;51.968;5.658;2024-03-02T11:02:45;16.2;43.5
79750;SHT31;69233;51.968;5.658;2024-03-02T11:05:26;16.3;43.5
79750;SHT31;69233;51.968;5.658;2024-03-02T11:07:59;16.4;43.8
79750;SHT31;69233;51.968;5.658;2024-03-02T11:10:34;16.5;43.9
79750;SHT31;69233;51.968;5.658;2024-03-02T11:13:05;16.6;43.7
79750;SHT31;69233;51.968;5.658;2024-03-02T11:15:40;16.7;45.1
79750;SHT31;69233;51.968;5.658;2024-03-02T11:18:10;16.9;42.2
79750;SHT31;69233;51.968;5.658;2024-03-02T11:20:41;17.1;41.9
79750;SHT31;69233;51.968;5.658;2024-03-02T11:23:10;17.2;41.8
79750;SHT31;69233;51.968;5.658;2024-03-02T11:25:40;17.3;40.7
79750;SHT31;69233;51.968;5.658;2024-03-02T11:28:09;17.4;42.2
79750;SHT31;69233;51.968;5.658;2024-03-02T11:30:56;17.5;40.9
79750;SHT31;69233;51.968;5.658;2024-03-02T11:33:26;17.6;40.6
79750;SHT31;69233;51.968;5.658;2024-03-02T11:35:58;17.7;40.4
79750;SHT31;69233;51.968;5.658;2024-03-02T11:38:31;17.8;39.3
79750;SHT31;69233;51.968;5.658;2024-03-02T11:41:02;17.9;39.2
79750;SHT31;69233;51.968;5.658;2024-03-02T11:43:31;18.0;39.8
79750;SHT31;69233;51.968;5.658;2024-03-02T11:46:03;18.0;38.1
79750;SHT31;69233;51.968;5.658;2024-03-02T11:48:35;18.1;37.5
79750;SHT31;69233;51.968;5.658;2024-03-02T11:51:05;18.2;36.8
79750;SHT31;69233;51.968;5.658;2024-03-02T11:53:37;18.2;37.2
79750;SHT31;69233;51.968;5.658;2024-03-02T11:56:09;18.3;35.3
79750;SHT31;69233;51.968;5.658;2024-03-02T11:58:39;18.4;37.5
79750;SHT31;69233;51.968;5.658;2024-03-02T12:01:10;18.6;36.5
79750;SHT31;69233;51.968;5.658;2024-03-02T12:03:40;18.7;37.1
79750;SHT31;69233;51.968;5.658;2024-03-02T12:06:09;18.9;36.2
79750;SHT31;69233;51.968;5.658;2024-03-02T12:08:40;19.1;36.6
79750;SHT31;69233;51.968;5.658;2024-03-02T12:11:13;19.4;37.7
79750;SHT31;69233;51.968;5.658;2024-03-02T12:13:55;19.7;36.3
79750;SHT31;69233;51.968;5.658;2024-03-02T12:16:26;19.9;35.8
79750;SHT31;69233;51.968;5.658;2024-03-02T12:18:55;20.1;34.9
79750;SHT31;69233;51.968;5.658;2024-03-02T12:21:23;20.2;33.8
79750;SHT31;69233;51.968;5.658;2024-03-02T12:23:53;20.3;35.2
79750;SHT31;69233;51.968;5.658;2024-03-02T12:26:22;20.4;36.7
79750;SHT31;69233;51.968;5.658;2024-03-02T12:28:51;20.6;35.5
79750;SHT31;69233;51.968;5.658;2024-03-02T12:31:20;20.8;34.1
79750;SHT31;69233;51.968;5.658;2024-03-02T12:33:49;21.0;34.2
79750;SHT31;69233;51.968;5.658;2024-03-02T12:36:18;21.1;33.6
79750;SHT31;69233;51.968;5.658;2024-03-02T12:38:47;21.2;34.7
79750;SHT31;69233;51.968;5.658;2024-03-02T12:41:17;21.3;33.1
79750;SHT31;69233;51.968;5.658;2024-03-02T12:43:46;21.4;33.5
79750;SHT31;69233;51.968;5.658;2024-03-02T12:46:14;21.5;32.0
79750;SHT31;69233;51.968;5.658;2024-03-02T12:48:44;21.4;32.2
79750;SHT31;69233;51.968;5.658;2024-03-02T12:51:12;21.4;33.5
79750;SHT31;69233;51.968;5.658;2024-03-02T12:53:41;21.3;33.4
79750;SHT31;69233;51.968;5.658;2024-03-02T12:56:10;21.3;32.8
79750;SHT31;69233;51.968;5.658;2024-03-02T12:58:40;21.2;34.3
79750;SHT31;69233;51.968;5.658;2024-03-02T13:01:10;21.2;33.1
79750;SHT31;69233;51.968;5.658;2024-03-02T13:03:41;21.3;33.6
79750;SHT31;69233;51.968;5.658;2024-03-02T13:06:10;21.3;34.8
79750;SHT31;69233;51.968;5.658;2024-03-02T13:08:39;21.5;33.7
79750;SHT31;69233;51.968;5.658;2024-03-02T13:11:08;21.7;32.9
79750;SHT31;69233;51.968;5.658;2024-03-02T13:13:38;21.8;31.9
79750;SHT31;69233;51.968;5.658;2024-03-02T13:16:10;21.9;33.6
79750;SHT31;69233;51.968;5.658;2024-03-02T13:18:40;22.0;34.0
79750;SHT31;69233;51.968;5.658;2024-03-02T13:21:09;22.2;31.2
79750;SHT31;69233;51.968;5.658;2024-03-02T13:23:37;22.4;31.5
79750;SHT31;69233;51.968;5.658;2024-03-02T13:26:08;22.6;31.6
79750;SHT31;69233;51.968;5.658;2024-03-02T13:28:39;22.9;31.2
79750;SHT31;69233;51.968;5.658;2024-03-02T13:31:07;23.1;30.2
79750;SHT31;69233;51.968;5.658;2024-03-02T13:33:38;23.2;30.3
79750;SHT31;69233;51.968;5.658;2024-03-02T13:36:07;23.3;31.3
79750;SHT31;69233;51.968;5.658;2024-03-02T13:38:36;23.5;31.0
79750;SHT31;69233;51.968;5.658;2024-03-02T13:41:05;23.6;29.7
79750;SHT31;69233;51.968;5.658;2024-03-02T13:43:34;23.7;30.8
79750;SHT31;69233;51.968;5.658;2024-03-02T13:46:05;23.8;30.0
79750;SHT31;69233;51.968;5.658;2024-03-02T13:48:36;23.9;28.5
79750;SHT31;69233;51.968;5.658;2024-03-02T13:51:05;23.8;28.8
79750;SHT31;69233;51.968;5.658;2024-03-02T13:53:34;23.7;28.4
79750;SHT31;69233;51.968;5.658;2024-03-02T13:56:03;23.5;29.2
79750;SHT31;69233;51.968;5.658;2024-03-02T13:58:33;23.3;29.7
79750;SHT31;69233;51.968;5.658;2024-03-02T14:01:01;23.1;29.3
79750;SHT31;69233;51.968;5.658;2024-03-02T14:03:31;22.8;29.0
79750;SHT31;69233;51.968;5.658;2024-03-02T14:06:01;22.6;30.0
79750;SHT31;69233;51.968;5.658;2024-03-02T14:08:30;22.4;30.8
79750;SHT31;69233;51.968;5.658;2024-03-02T14:11:00;22.2;30.9
79750;SHT31;69233;51.968;5.658;2024-03-02T14:13:30;22.1;30.9
79750;SHT31;69233;51.968;5.658;2024-03-02T14:15:59;22.0;33.2
79750;SHT31;69233;51.968;5.658;2024-03-02T14:18:28;22.0;31.7
79750;SHT31;69233;51.968;5.658;2024-03-02T14:20:57;22.0;31.8
79750;SHT31;69233;51.968;5.658;2024-03-02T14:23:27;22.1;31.7
79750;SHT31;69233;51.968;5.658;2024-03-02T14:25:56;22.2;32.2
79750;SHT31;69233;51.968;5.658;2024-03-02T14:28:25;22.5;32.4
79750;SHT31;69233;51.968;5.658;2024-03-02T14:30:54;22.8;31.4
79750;SHT31;69233;51.968;5.658;2024-03-02T14:33:23;23.2;29.0
79750;SHT31;69233;51.968;5.658;2024-03-02T14:35:52;23.4;32.0
79750;SHT31;69233;51.968;5.658;2024-03-02T14:38:21;23.7;31.7
79750;SHT31;69233;51.968;5.658;2024-03-02T14:40:50;24.0;30.6
79750;SHT31;69233;51.968;5.658;2024-03-02T14:43:19;24.4;31.8
79750;SHT31;69233;51.968;5.658;2024-03-02T14:45:48;24.7;30.2
79750;SHT31;69233;51.968;5.658;2024-03-02T14:48:19;25.0;30.1
79750;SHT31;69233;51.968;5.658;2024-03-02T14:50:48;25.2;30.0
79750;SHT31;69233;51.968;5.658;2024-03-02T14:53:17;25.3;29.4
79750;SHT31;69233;51.968;5.658;2024-03-02T14:55:46;25.4;28.7
79750;SHT31;69233;51.968;5.658;2024-03-02T14:58:16;25.5;28.4
79750;SHT31;69233;51.968;5.658;2024-03-02T15:00:44;25.6;29.9
79750;SHT31;69233;51.968;5.658;2024-03-02T15:03:13;25.6;31.6
79750;SHT31;69233;51.968;5.658;2024-03-02T15:05:45;25.7;30.0
79750;SHT31;69233;51.968;5.658;2024-03-02T15:08:18;25.8;27.1
79750;SHT31;69233;51.968;5.658;2024-03-02T15:10:46;25.9;29.3
79750;SHT31;69233;51.968;5.658;2024-03-02T15:13:15;26.0;27.9
79750;SHT31;69233;51.968;5.658;2024-03-02T15:15:44;26.0;28.6
79750;SHT31;69233;51.968;5.658;2024-03-02T15:18:13;26.1;28.1
79750;SHT31;69233;51.968;5.658;2024-03-02T15:20:42;26.1;27.5
79750;SHT31;69233;51.968;5.658;2024-03-02T15:23:10;26.1;27.4
79750;SHT31;69233;51.968;5.658;2024-03-02T15:25:39;26.1;27.6
79750;SHT31;69233;51.968;5.658;2024-03-02T15:28:09;26.0;27.1
79750;SHT31;69233;51.968;5.658;2024-03-02T15:30:40;25.8;27.8
79750;SHT31;69233;51.968;5.658;2024-03-02T15:33:08;25.4;27.4
79750;SHT31;69233;51.968;5.658;2024-03-02T15:35:37;25.0;27.8
79750;SHT31;69233;51.968;5.658;2024-03-02T15:38:06;24.3;28.7
79750;SHT31;69233;51.968;5.658;2024-03-02T15:40:38;23.5;29.9
79750;SHT31;69233;51.968;5.658;2024-03-02T15:43:07;22.7;31.2
79750;SHT31;69233;51.968;5.658;2024-03-02T15:45:35;22.0;32.4
79750;SHT31;69233;51.968;5.658;2024-03-02T15:48:05;21.5;32.9
79750;SHT31;69233;51.968;5.658;2024-03-02T15:50:36;21.1;34.0
79750;SHT31;69233;51.968;5.658;2024-03-02T15:53:05;20.6;34.6
79750;SHT31;69233;51.968;5.658;2024-03-02T15:55:33;20.3;35.6
79750;SHT31;69233;51.968;5.658;2024-03-02T15:58:03;20.0;36.4
79750;SHT31;69233;51.968;5.658;2024-03-02T16:00:32;19.7;37.5
79750;SHT31;69233;51.968;5.658;2024-03-02T16:03:02;19.5;37.7
79750;SHT31;69233;51.968;5.658;2024-03-02T16:05:31;19.4;38.2
79750;SHT31;69233;51.968;5.658;2024-03-02T16:07:59;19.3;38.6
79750;SHT31;69233;51.968;5.658;2024-03-02T16:10:28;19.2;38.7
79750;SHT31;69233;51.968;5.658;2024-03-02T16:12:58;19.1;39.6
79750;SHT31;69233;51.968;5.658;2024-03-02T16:15:28;19.0;39.9
79750;SHT31;69233;51.968;5.658;2024-03-02T16:17:57;18.8;39.7